sensor_id;sensor_type;location;lat;lon;timestamp;temperature;humidity
9808;DHT22;4943;52.550;13.462;2023-05-31T00:02:25;16.80;83.90
9808;DHT22;4943;52.550;13.462;2023-05-31T00:04:53;16.70;84.70
9808;DHT22;4943;52.550;13.462;2023-05-31T00:07:22;16.70;84.60
9808;DHT22;4943;52.550;13.462;2023-05-31T00:09:50;16.60;84.90
9808;DHT22;4943;52.550;13.462;2023-05-31T00:12:18;16.60;85.10
9808;DHT22;4943;52.550;13.462;2023-05-31T00:14:46;16.60;85.00
9808;DHT22;4943;52.550;13.462;2023-05-31T00:17:14;16.50;86.20
9808;DHT22;4943;52.550;13.462;2023-05-31T00:19:46;16.50;85.60
9808;DHT22;4943;52.550;13.462;2023-05-31T00:22:15;16.40;85.50
9808;DHT22;4943;52.550;13.462;2023-05-31T00:24:44;16.40;85.60
9808;DHT22;4943;52.550;13.462;2023-05-31T00:27:12;16.40;85.70
9808;DHT22;4943;52.550;13.462;2023-05-31T00:29:40;16.30;85.60
9808;DHT22;4943;52.550;13.462;2023-05-31T00:32:08;16.30;86.30
9808;DHT22;4943;52.550;13.462;2023-05-31T00:34:36;16.30;85.50
9808;DHT22;4943;52.550;13.462;2023-05-31T00:37:06;16.30;85.70
9808;DHT22;4943;52.550;13.462;2023-05-31T00:39:34;16.30;85.30
9808;DHT22;4943;52.550;13.462;2023-05-31T00:42:02;16.30;85.90
9808;DHT22;4943;52.550;13.462;2023-05-31T00:44:30;16.20;85.90
9808;DHT22;4943;52.550;13.462;2023-05-31T00:46:58;16.20;85.90
9808;DHT22;4943;52.550;13.462;2023-05-31T00:49:26;16.20;85.60
9808;DHT22;4943;52.550;13.462;2023-05-31T00:51:55;16.20;85.80
9808;DHT22;4943;52.550;13.462;2023-05-31T00:54:25;16.20;86.60
9808;DHT22;4943;52.550;13.462;2023-05-31T00:56:53;16.10;85.90
9808;DHT22;4943;52.550;13.462;2023-05-31T00:59:21;16.10;86.10
9808;DHT22;4943;52.550;13.462;2023-05-31T01:01:50;16.00;86.00
9808;DHT22;4943;52.550;13.462;2023-05-31T01:04:19;16.00;86.50
9808;DHT22;4943;52.550;13.462;2023-05-31T01:06:47;15.90;86.50
9808;DHT22;4943;52.550;13.462;2023-05-31T01:09:17;15.90;86.20
9808;DHT22;4943;52.550;13.462;2023-05-31T01:11:57;15.80;85.90
9808;DHT22;4943;52.550;13.462;2023-05-31T01:14:32;15.90;86.10
9808;DHT22;4943;52.550;13.462;2023-05-31T01:17:09;15.90;86.20
9808;DHT22;4943;52.550;13.462;2023-05-31T01:19:45;15.90;86.00
9808;DHT22;4943;52.550;13.462;2023-05-31T01:22:25;15.90;86.70
9808;DHT22;4943;52.550;13.462;2023-05-31T01:25:13;15.80;86.60
9808;DHT22;4943;52.550;13.462;2023-05-31T01:27:43;15.80;87.10
9808;DHT22;4943;52.550;13.462;2023-05-31T01:30:13;15.70;87.20
9808;DHT22;4943;52.550;13.462;2023-05-31T01:32:45;15.60;87.50
9808;DHT22;4943;52.550;13.462;2023-05-31T01:35:13;15.60;87.60
9808;DHT22;4943;52.550;13.462;2023-05-31T01:37:42;15.50;88.30
9808;DHT22;4943;52.550;13.462;2023-05-31T01:40:10;15.50;87.60
9808;DHT22;4943;52.550;13.462;2023-05-31T01:42:42;15.40;87.70
9808;DHT22;4943;52.550;13.462;2023-05-31T01:45:12;15.40;88.00
9808;DHT22;4943;52.550;13.462;2023-05-31T01:47:42;15.30;88.10
9808;DHT22;4943;52.550;13.462;2023-05-31T01:50:13;15.30;89.00
9808;DHT22;4943;52.550;13.462;2023-05-31T01:52:41;15.30;88.00
9808;DHT22;4943;52.550;13.462;2023-05-31T01:55:10;15.30;88.70
9808;DHT22;4943;52.550;13.462;2023-05-31T01:57:38;15.30;88.80
9808;DHT22;4943;52.550;13.462;2023-05-31T02:00:12;15.30;88.20
9808;DHT22;4943;52.550;13.462;2023-05-31T02:02:42;15.20;88.30
9808;DHT22;4943;52.550;13.462;2023-05-31T02:05:11;15.20;88.40
9808;DHT22;4943;52.550;13.462;2023-05-31T02:07:40;15.10;88.40
9808;DHT22;4943;52.550;13.462;2023-05-31T02:10:09;15.10;89.00
9808;DHT22;4943;52.550;13.462;2023-05-31T02:12:38;15.10;88.70
9808;DHT22;4943;52.550;13.462;2023-05-31T02:15:07;15.10;87.90
9808;DHT22;4943;52.550;13.462;2023-05-31T02:17:40;15.20;88.00
9808;DHT22;4943;52.550;13.462;2023-05-31T02:20:11;15.20;88.10
9808;DHT22;4943;52.550;13.462;2023-05-31T02:22:40;15.10;88.10
9808;DHT22;4943;52.550;13.462;2023-05-31T02:25:08;15.10;88.00
9808;DHT22;4943;52.550;13.462;2023-05-31T02:27:37;15.10;87.90
9808;DHT22;4943;52.550;13.462;2023-05-31T02:30:06;15.10;87.90
9808;DHT22;4943;52.550;13.462;2023-05-31T02:32:35;15.10;87.90
9808;DHT22;4943;52.550;13.462;2023-05-31T02:35:07;15.10;87.90
9808;DHT22;4943;52.550;13.462;2023-05-31T02:37:36;15.10;87.90
9808;DHT22;4943;52.550;13.462;2023-05-31T02:40:06;15.00;87.90
9808;DHT22;4943;52.550;13.462;2023-05-31T02:42:37;15.00;87.90
9808;DHT22;4943;52.550;13.462;2023-05-31T02:45:06;14.90;88.00
9808;DHT22;4943;52.550;13.462;2023-05-31T02:47:36;14.90;88.10
9808;DHT22;4943;52.550;13.462;2023-05-31T02:50:07;14.90;88.10
9808;DHT22;4943;52.550;13.462;2023-05-31T02:52:36;14.90;88.20
9808;DHT22;4943;52.550;13.462;2023-05-31T02:55:05;14.90;88.30
9808;DHT22;4943;52.550;13.462;2023-05-31T02:57:33;14.90;88.20
9808;DHT22;4943;52.550;13.462;2023-05-31T03:00:03;14.90;88.20
9808;DHT22;4943;52.550;13.462;2023-05-31T03:02:37;14.90;88.30
9808;DHT22;4943;52.550;13.462;2023-05-31T03:05:07;14.90;88.40
9808;DHT22;4943;52.550;13.462;2023-05-31T03:07:37;14.80;88.30
9808;DHT22;4943;52.550;13.462;2023-05-31T03:10:06;14.80;88.40
9808;DHT22;4943;52.550;13.462;2023-05-31T03:12:35;14.80;88.50
9808;DHT22;4943;52.550;13.462;2023-05-31T03:15:04;14.80;88.60
9808;DHT22;4943;52.550;13.462;2023-05-31T03:17:33;14.80;89.50
9808;DHT22;4943;52.550;13.462;2023-05-31T03:20:02;14.80;88.80
9808;DHT22;4943;52.550;13.462;2023-05-31T03:22:34;14.80;89.20
9808;DHT22;4943;52.550;13.462;2023-05-31T03:25:03;15.10;90.20
9808;DHT22;4943;52.550;13.462;2023-05-31T03:27:31;15.50;90.50
9808;DHT22;4943;52.550;13.462;2023-05-31T03:30:00;16.00;90.50
9808;DHT22;4943;52.550;13.462;2023-05-31T03:32:28;16.40;90.40
9808;DHT22;4943;52.550;13.462;2023-05-31T03:34:56;16.80;90.20
9808;DHT22;4943;52.550;13.462;2023-05-31T03:37:25;17.10;90.20
9808;DHT22;4943;52.550;13.462;2023-05-31T03:39:54;17.40;89.10
9808;DHT22;4943;52.550;13.462;2023-05-31T03:42:22;17.70;89.00
9808;DHT22;4943;52.550;13.462;2023-05-31T03:44:50;17.90;88.20
9808;DHT22;4943;52.550;13.462;2023-05-31T03:47:19;18.00;86.90
9808;DHT22;4943;52.550;13.462;2023-05-31T03:49:47;18.00;86.60
9808;DHT22;4943;52.550;13.462;2023-05-31T03:52:16;18.00;86.20
9808;DHT22;4943;52.550;13.462;2023-05-31T03:54:44;18.00;86.20
9808;DHT22;4943;52.550;13.462;2023-05-31T03:57:15;17.90;86.00
9808;DHT22;4943;52.550;13.462;2023-05-31T03:59:43;17.90;86.60
9808;DHT22;4943;52.550;13.462;2023-05-31T04:02:11;17.90;86.30
9808;DHT22;4943;52.550;13.462;2023-05-31T04:04:40;17.90;86.20
9808;DHT22;4943;52.550;13.462;2023-05-31T04:07:08;17.70;85.40
9808;DHT22;4943;52.550;13.462;2023-05-31T04:09:36;17.60;85.40
9808;DHT22;4943;52.550;13.462;2023-05-31T04:12:05;17.50;85.80
9808;DHT22;4943;52.550;13.462;2023-05-31T04:14:35;17.50;85.90
9808;DHT22;4943;52.550;13.462;2023-05-31T04:17:03;17.50;86.30
9808;DHT22;4943;52.550;13.462;2023-05-31T04:19:32;17.30;84.60
9808;DHT22;4943;52.550;13.462;2023-05-31T04:22:00;17.10;84.10
9808;DHT22;4943;52.550;13.462;2023-05-31T04:24:28;17.00;84.30
9808;DHT22;4943;52.550;13.462;2023-05-31T04:26:56;16.80;84.80
9808;DHT22;4943;52.550;13.462;2023-05-31T04:29:24;16.60;84.90
9808;DHT22;4943;52.550;13.462;2023-05-31T04:31:54;16.40;85.10
9808;DHT22;4943;52.550;13.462;2023-05-31T04:34:23;16.20;86.30
9808;DHT22;4943;52.550;13.462;2023-05-31T04:36:53;16.10;86.70
9808;DHT22;4943;52.550;13.462;2023-05-31T04:39:22;16.00;86.70
9808;DHT22;4943;52.550;13.462;2023-05-31T04:41:50;15.90;86.70
9808;DHT22;4943;52.550;13.462;2023-05-31T04:44:18;15.90;87.00
9808;DHT22;4943;52.550;13.462;2023-05-31T04:46:46;15.80;87.10
9808;DHT22;4943;52.550;13.462;2023-05-31T04:49:16;15.80;87.60
9808;DHT22;4943;52.550;13.462;2023-05-31T04:51:45;15.80;87.90
9808;DHT22;4943;52.550;13.462;2023-05-31T04:54:13;15.70;87.90
9808;DHT22;4943;52.550;13.462;2023-05-31T04:56:41;15.70;88.00
9808;DHT22;4943;52.550;13.462;2023-05-31T04:59:09;15.80;88.30
9808;DHT22;4943;52.550;13.462;2023-05-31T05:01:39;15.70;88.50
9808;DHT22;4943;52.550;13.462;2023-05-31T05:04:07;15.70;88.70
9808;DHT22;4943;52.550;13.462;2023-05-31T05:06:37;15.70;88.70
9808;DHT22;4943;52.550;13.462;2023-05-31T05:09:07;15.70;88.80
9808;DHT22;4943;52.550;13.462;2023-05-31T05:11:36;15.70;88.80
9808;DHT22;4943;52.550;13.462;2023-05-31T05:14:05;15.70;89.10
9808;DHT22;4943;52.550;13.462;2023-05-31T05:16:33;15.70;89.30
9808;DHT22;4943;52.550;13.462;2023-05-31T05:19:01;15.70;89.50
9808;DHT22;4943;52.550;13.462;2023-05-31T05:21:29;15.70;89.40
9808;DHT22;4943;52.550;13.462;2023-05-31T05:23:59;15.80;89.60
9808;DHT22;4943;52.550;13.462;2023-05-31T05:26:27;15.90;89.80
9808;DHT22;4943;52.550;13.462;2023-05-31T05:28:55;15.90;89.60
9808;DHT22;4943;52.550;13.462;2023-05-31T05:31:23;15.90;89.80
9808;DHT22;4943;52.550;13.462;2023-05-31T05:33:51;15.90;89.90
9808;DHT22;4943;52.550;13.462;2023-05-31T05:36:20;15.90;89.70
9808;DHT22;4943;52.550;13.462;2023-05-31T05:38:50;16.00;90.00
9808;DHT22;4943;52.550;13.462;2023-05-31T05:41:19;16.10;89.80
9808;DHT22;4943;52.550;13.462;2023-05-31T05:43:47;16.10;89.80
9808;DHT22;4943;52.550;13.462;2023-05-31T05:46:15;16.10;89.90
9808;DHT22;4943;52.550;13.462;2023-05-31T05:48:43;16.10;89.70
9808;DHT22;4943;52.550;13.462;2023-05-31T05:51:12;16.20;90.00
9808;DHT22;4943;52.550;13.462;2023-05-31T05:53:40;16.20;89.90
9808;DHT22;4943;52.550;13.462;2023-05-31T05:56:09;16.20;90.00
9808;DHT22;4943;52.550;13.462;2023-05-31T05:58:39;16.30;90.00
9808;DHT22;4943;52.550;13.462;2023-05-31T06:01:07;16.40;90.30
9808;DHT22;4943;52.550;13.462;2023-05-31T06:03:35;16.50;89.90
9808;DHT22;4943;52.550;13.462;2023-05-31T06:06:04;16.60;90.00
9808;DHT22;4943;52.550;13.462;2023-05-31T06:08:32;16.60;90.00
9808;DHT22;4943;52.550;13.462;2023-05-31T06:11:00;16.60;90.30
9808;DHT22;4943;52.550;13.462;2023-05-31T06:13:29;16.70;89.80
9808;DHT22;4943;52.550;13.462;2023-05-31T06:15:59;16.80;89.80
9808;DHT22;4943;52.550;13.462;2023-05-31T06:18:27;16.80;89.70
9808;DHT22;4943;52.550;13.462;2023-05-31T06:20:55;16.90;89.60
9808;DHT22;4943;52.550;13.462;2023-05-31T06:23:24;16.90;89.50
9808;DHT22;4943;52.550;13.462;2023-05-31T06:25:52;17.00;89.70
9808;DHT22;4943;52.550;13.462;2023-05-31T06:28:20;17.00;89.70
9808;DHT22;4943;52.550;13.462;2023-05-31T06:30:48;17.10;89.80
9808;DHT22;4943;52.550;13.462;2023-05-31T06:33:18;17.00;89.80
9808;DHT22;4943;52.550;13.462;2023-05-31T06:35:46;17.10;89.80
9808;DHT22;4943;52.550;13.462;2023-05-31T06:38:14;17.10;90.30
9808;DHT22;4943;52.550;13.462;2023-05-31T06:40:43;17.20;89.90
9808;DHT22;4943;52.550;13.462;2023-05-31T06:43:12;17.20;90.00
9808;DHT22;4943;52.550;13.462;2023-05-31T06:45:40;17.30;90.00
9808;DHT22;4943;52.550;13.462;2023-05-31T06:48:09;17.40;89.80
9808;DHT22;4943;52.550;13.462;2023-05-31T06:50:38;17.50;89.80
9808;DHT22;4943;52.550;13.462;2023-05-31T06:53:07;17.50;89.60
9808;DHT22;4943;52.550;13.462;2023-05-31T06:55:37;17.60;89.50
9808;DHT22;4943;52.550;13.462;2023-05-31T06:58:06;17.60;89.50
9808;DHT22;4943;52.550;13.462;2023-05-31T07:00:34;17.70;89.60
9808;DHT22;4943;52.550;13.462;2023-05-31T07:03:02;17.80;89.50
9808;DHT22;4943;52.550;13.462;2023-05-31T07:05:30;17.80;89.40
9808;DHT22;4943;52.550;13.462;2023-05-31T07:08:00;17.90;89.30
9808;DHT22;4943;52.550;13.462;2023-05-31T07:10:28;17.90;89.20
9808;DHT22;4943;52.550;13.462;2023-05-31T07:12:57;18.00;89.20
9808;DHT22;4943;52.550;13.462;2023-05-31T07:15:25;18.00;89.10
9808;DHT22;4943;52.550;13.462;2023-05-31T07:17:54;18.10;89.00
9808;DHT22;4943;52.550;13.462;2023-05-31T07:20:22;18.10;89.10
9808;DHT22;4943;52.550;13.462;2023-05-31T07:22:50;18.10;89.20
9808;DHT22;4943;52.550;13.462;2023-05-31T07:25:20;18.20;89.30
9808;DHT22;4943;52.550;13.462;2023-05-31T07:27:48;18.30;89.20
9808;DHT22;4943;52.550;13.462;2023-05-31T07:30:16;18.40;89.10
9808;DHT22;4943;52.550;13.462;2023-05-31T07:32:44;18.50;89.10
9808;DHT22;4943;52.550;13.462;2023-05-31T07:35:13;18.70;88.60
9808;DHT22;4943;52.550;13.462;2023-05-31T07:37:41;18.70;88.20
9808;DHT22;4943;52.550;13.462;2023-05-31T07:40:09;18.80;88.00
9808;DHT22;4943;52.550;13.462;2023-05-31T07:42:39;19.00;87.90
9808;DHT22;4943;52.550;13.462;2023-05-31T07:45:08;19.10;88.00
9808;DHT22;4943;52.550;13.462;2023-05-31T07:47:36;19.20;87.90
9808;DHT22;4943;52.550;13.462;2023-05-31T07:50:05;19.20;87.70
9808;DHT22;4943;52.550;13.462;2023-05-31T07:52:33;19.30;87.60
9808;DHT22;4943;52.550;13.462;2023-05-31T07:55:01;19.40;87.60
9808;DHT22;4943;52.550;13.462;2023-05-31T07:57:33;19.60;86.90
9808;DHT22;4943;52.550;13.462;2023-05-31T08:00:02;19.60;86.50
9808;DHT22;4943;52.550;13.462;2023-05-31T08:02:31;19.60;85.80
9808;DHT22;4943;52.550;13.462;2023-05-31T08:04:59;19.70;86.00
9808;DHT22;4943;52.550;13.462;2023-05-31T08:07:31;19.80;85.20
9808;DHT22;4943;52.550;13.462;2023-05-31T08:09:59;19.80;85.30
9808;DHT22;4943;52.550;13.462;2023-05-31T08:12:27;19.90;85.30
9808;DHT22;4943;52.550;13.462;2023-05-31T08:14:57;20.00;84.90
9808;DHT22;4943;52.550;13.462;2023-05-31T08:17:27;20.10;84.50
9808;DHT22;4943;52.550;13.462;2023-05-31T08:19:56;20.20;84.00
9808;DHT22;4943;52.550;13.462;2023-05-31T08:22:24;20.20;83.40
9808;DHT22;4943;52.550;13.462;2023-05-31T08:24:52;20.30;82.40
9808;DHT22;4943;52.550;13.462;2023-05-31T08:27:20;20.30;82.70
9808;DHT22;4943;52.550;13.462;2023-05-31T08:29:49;20.40;82.70
9808;DHT22;4943;52.550;13.462;2023-05-31T08:32:17;20.40;81.70
9808;DHT22;4943;52.550;13.462;2023-05-31T08:34:46;20.50;81.70
9808;DHT22;4943;52.550;13.462;2023-05-31T08:37:14;20.50;81.00
9808;DHT22;4943;52.550;13.462;2023-05-31T08:39:43;20.50;80.70
9808;DHT22;4943;52.550;13.462;2023-05-31T08:42:15;20.50;80.10
9808;DHT22;4943;52.550;13.462;2023-05-31T08:44:44;20.50;79.40
9808;DHT22;4943;52.550;13.462;2023-05-31T08:47:17;20.50;79.90
9808;DHT22;4943;52.550;13.462;2023-05-31T08:49:48;20.50;79.70
9808;DHT22;4943;52.550;13.462;2023-05-31T08:52:17;20.60;79.90
9808;DHT22;4943;52.550;13.462;2023-05-31T08:54:47;20.80;79.20
9808;DHT22;4943;52.550;13.462;2023-05-31T08:57:17;20.80;78.20
9808;DHT22;4943;52.550;13.462;2023-05-31T08:59:46;20.90;77.90
9808;DHT22;4943;52.550;13.462;2023-05-31T09:02:16;20.90;77.60
9808;DHT22;4943;52.550;13.462;2023-05-31T09:04:44;20.90;77.40
9808;DHT22;4943;52.550;13.462;2023-05-31T09:07:14;21.00;77.40
9808;DHT22;4943;52.550;13.462;2023-05-31T09:09:42;21.00;76.50
9808;DHT22;4943;52.550;13.462;2023-05-31T09:12:10;21.00;76.10
9808;DHT22;4943;52.550;13.462;2023-05-31T09:14:38;21.10;76.10
9808;DHT22;4943;52.550;13.462;2023-05-31T09:17:07;21.10;75.30
9808;DHT22;4943;52.550;13.462;2023-05-31T09:19:40;21.10;74.20
9808;DHT22;4943;52.550;13.462;2023-05-31T09:22:08;21.20;74.10
9808;DHT22;4943;52.550;13.462;2023-05-31T09:24:37;21.20;75.10
9808;DHT22;4943;52.550;13.462;2023-05-31T09:27:06;21.20;74.20
9808;DHT22;4943;52.550;13.462;2023-05-31T09:29:36;21.20;73.30
9808;DHT22;4943;52.550;13.462;2023-05-31T09:32:08;21.30;73.60
9808;DHT22;4943;52.550;13.462;2023-05-31T09:34:36;21.30;73.10
9808;DHT22;4943;52.550;13.462;2023-05-31T09:37:04;21.30;72.90
9808;DHT22;4943;52.550;13.462;2023-05-31T09:39:34;21.30;72.10
9808;DHT22;4943;52.550;13.462;2023-05-31T09:42:11;21.30;71.80
9808;DHT22;4943;52.550;13.462;2023-05-31T09:44:47;21.30;72.30
9808;DHT22;4943;52.550;13.462;2023-05-31T09:47:15;21.30;72.60
9808;DHT22;4943;52.550;13.462;2023-05-31T09:49:43;21.30;72.60
9808;DHT22;4943;52.550;13.462;2023-05-31T09:52:12;21.40;72.60
9808;DHT22;4943;52.550;13.462;2023-05-31T09:54:41;21.40;72.30
9808;DHT22;4943;52.550;13.462;2023-05-31T09:57:28;21.50;73.20
9808;DHT22;4943;52.550;13.462;2023-05-31T09:59:57;21.50;72.20
9808;DHT22;4943;52.550;13.462;2023-05-31T10:02:26;21.50;71.40
9808;DHT22;4943;52.550;13.462;2023-05-31T10:04:55;21.60;71.50
9808;DHT22;4943;52.550;13.462;2023-05-31T10:07:24;21.70;71.30
9808;DHT22;4943;52.550;13.462;2023-05-31T10:09:54;21.70;71.50
9808;DHT22;4943;52.550;13.462;2023-05-31T10:12:25;21.80;71.20
9808;DHT22;4943;52.550;13.462;2023-05-31T10:14:57;21.90;71.60
9808;DHT22;4943;52.550;13.462;2023-05-31T10:17:28;22.00;71.30
9808;DHT22;4943;52.550;13.462;2023-05-31T10:19:59;22.10;71.90
9808;DHT22;4943;52.550;13.462;2023-05-31T10:22:32;22.10;71.70
9808;DHT22;4943;52.550;13.462;2023-05-31T10:25:06;22.20;71.40
9808;DHT22;4943;52.550;13.462;2023-05-31T10:27:39;22.30;71.50
9808;DHT22;4943;52.550;13.462;2023-05-31T10:30:12;22.50;71.50
9808;DHT22;4943;52.550;13.462;2023-05-31T10:32:41;22.60;71.20
9808;DHT22;4943;52.550;13.462;2023-05-31T10:35:12;22.70;71.20
9808;DHT22;4943;52.550;13.462;2023-05-31T10:37:40;22.80;71.00
9808;DHT22;4943;52.550;13.462;2023-05-31T10:40:13;22.90;70.80
9808;DHT22;4943;52.550;13.462;2023-05-31T10:42:53;23.00;70.60
9808;DHT22;4943;52.550;13.462;2023-05-31T10:45:26;23.10;70.10
9808;DHT22;4943;52.550;13.462;2023-05-31T10:48:00;23.10;69.90
9808;DHT22;4943;52.550;13.462;2023-05-31T10:50:30;23.10;70.50
9808;DHT22;4943;52.550;13.462;2023-05-31T10:53:09;23.20;70.20
9808;DHT22;4943;52.550;13.462;2023-05-31T10:55:41;23.30;70.40
9808;DHT22;4943;52.550;13.462;2023-05-31T10:58:29;23.40;70.60
9808;DHT22;4943;52.550;13.462;2023-05-31T11:01:02;23.50;70.20
9808;DHT22;4943;52.550;13.462;2023-05-31T11:03:33;23.50;69.70
9808;DHT22;4943;52.550;13.462;2023-05-31T11:06:07;23.60;69.70
9808;DHT22;4943;52.550;13.462;2023-05-31T11:08:38;23.70;68.70
9808;DHT22;4943;52.550;13.462;2023-05-31T11:11:25;23.60;68.30
9808;DHT22;4943;52.550;13.462;2023-05-31T11:13:59;23.60;68.80
9808;DHT22;4943;52.550;13.462;2023-05-31T11:16:30;23.60;68.70
9808;DHT22;4943;52.550;13.462;2023-05-31T11:19:04;23.70;68.80
9808;DHT22;4943;52.550;13.462;2023-05-31T11:21:49;23.80;69.00
9808;DHT22;4943;52.550;13.462;2023-05-31T11:24:27;23.90;68.70
9808;DHT22;4943;52.550;13.462;2023-05-31T11:26:57;23.90;68.00
9808;DHT22;4943;52.550;13.462;2023-05-31T11:29:56;23.90;67.80
9808;DHT22;4943;52.550;13.462;2023-05-31T11:32:54;23.90;66.80
9808;DHT22;4943;52.550;13.462;2023-05-31T11:35:23;24.00;67.60
9808;DHT22;4943;52.550;13.462;2023-05-31T11:38:05;24.00;67.20
9808;DHT22;4943;52.550;13.462;2023-05-31T11:40:34;24.10;66.60
9808;DHT22;4943;52.550;13.462;2023-05-31T11:43:05;24.20;66.50
9808;DHT22;4943;52.550;13.462;2023-05-31T11:45:40;24.20;66.30
9808;DHT22;4943;52.550;13.462;2023-05-31T11:51:03;24.60;66.60
9808;DHT22;4943;52.550;13.462;2023-05-31T11:53:32;24.70;66.70
9808;DHT22;4943;52.550;13.462;2023-05-31T11:56:00;24.80;66.80
9808;DHT22;4943;52.550;13.462;2023-05-31T11:58:28;24.90;66.00
9808;DHT22;4943;52.550;13.462;2023-05-31T12:00:59;24.90;66.50
9808;DHT22;4943;52.550;13.462;2023-05-31T12:03:29;24.80;64.20
9808;DHT22;4943;52.550;13.462;2023-05-31T12:05:59;24.70;65.10
9808;DHT22;4943;52.550;13.462;2023-05-31T12:08:27;24.70;66.70
9808;DHT22;4943;52.550;13.462;2023-05-31T12:11:03;24.60;66.20
9808;DHT22;4943;52.550;13.462;2023-05-31T12:13:32;24.50;64.40
9808;DHT22;4943;52.550;13.462;2023-05-31T12:16:04;24.40;64.70
9808;DHT22;4943;52.550;13.462;2023-05-31T12:18:32;24.30;65.30
9808;DHT22;4943;52.550;13.462;2023-05-31T12:21:09;24.20;65.20
9808;DHT22;4943;52.550;13.462;2023-05-31T12:23:51;24.20;65.10
9808;DHT22;4943;52.550;13.462;2023-05-31T12:26:19;24.20;65.60
9808;DHT22;4943;52.550;13.462;2023-05-31T12:28:48;24.20;65.20
9808;DHT22;4943;52.550;13.462;2023-05-31T12:31:21;24.20;65.50
9808;DHT22;4943;52.550;13.462;2023-05-31T12:33:59;24.30;64.70
9808;DHT22;4943;52.550;13.462;2023-05-31T12:36:37;24.30;63.00
9808;DHT22;4943;52.550;13.462;2023-05-31T12:39:10;24.30;63.20
9808;DHT22;4943;52.550;13.462;2023-05-31T12:41:41;24.40;64.10
9808;DHT22;4943;52.550;13.462;2023-05-31T12:44:12;24.60;63.50
9808;DHT22;4943;52.550;13.462;2023-05-31T12:46:44;24.70;64.20
9808;DHT22;4943;52.550;13.462;2023-05-31T12:49:20;24.80;63.20
9808;DHT22;4943;52.550;13.462;2023-05-31T12:51:48;24.80;61.20
9808;DHT22;4943;52.550;13.462;2023-05-31T12:54:17;24.80;61.10
9808;DHT22;4943;52.550;13.462;2023-05-31T12:56:45;24.80;61.40
9808;DHT22;4943;52.550;13.462;2023-05-31T12:59:13;24.80;61.80
9808;DHT22;4943;52.550;13.462;2023-05-31T13:01:44;24.90;62.10
9808;DHT22;4943;52.550;13.462;2023-05-31T13:04:12;25.00;61.60
9808;DHT22;4943;52.550;13.462;2023-05-31T13:06:41;25.10;61.80
9808;DHT22;4943;52.550;13.462;2023-05-31T13:09:09;25.20;62.00
9808;DHT22;4943;52.550;13.462;2023-05-31T13:11:37;25.40;62.70
9808;DHT22;4943;52.550;13.462;2023-05-31T13:14:08;25.40;60.90
9808;DHT22;4943;52.550;13.462;2023-05-31T13:16:37;25.50;61.10
9808;DHT22;4943;52.550;13.462;2023-05-31T13:19:08;25.60;61.30
9808;DHT22;4943;52.550;13.462;2023-05-31T13:21:36;25.60;61.40
9808;DHT22;4943;52.550;13.462;2023-05-31T13:24:05;25.60;60.30
9808;DHT22;4943;52.550;13.462;2023-05-31T13:26:34;25.70;60.90
9808;DHT22;4943;52.550;13.462;2023-05-31T13:29:03;25.70;60.40
9808;DHT22;4943;52.550;13.462;2023-05-31T13:31:33;25.60;60.20
9808;DHT22;4943;52.550;13.462;2023-05-31T13:34:01;25.60;60.40
9808;DHT22;4943;52.550;13.462;2023-05-31T13:36:31;25.50;60.50
9808;DHT22;4943;52.550;13.462;2023-05-31T13:38:59;25.60;60.60
9808;DHT22;4943;52.550;13.462;2023-05-31T13:41:28;25.60;60.20
9808;DHT22;4943;52.550;13.462;2023-05-31T13:43:57;25.70;61.30
9808;DHT22;4943;52.550;13.462;2023-05-31T13:46:25;25.70;60.90
9808;DHT22;4943;52.550;13.462;2023-05-31T13:48:53;25.70;60.90
9808;DHT22;4943;52.550;13.462;2023-05-31T13:51:22;25.70;61.20
9808;DHT22;4943;52.550;13.462;2023-05-31T13:53:51;25.60;60.20
9808;DHT22;4943;52.550;13.462;2023-05-31T13:56:19;25.60;60.60
9808;DHT22;4943;52.550;13.462;2023-05-31T13:58:48;25.70;61.30
9808;DHT22;4943;52.550;13.462;2023-05-31T14:01:16;25.80;61.30
9808;DHT22;4943;52.550;13.462;2023-05-31T14:03:45;25.90;61.20
9808;DHT22;4943;52.550;13.462;2023-05-31T14:06:13;26.10;61.90
9808;DHT22;4943;52.550;13.462;2023-05-31T14:08:41;26.10;61.20
9808;DHT22;4943;52.550;13.462;2023-05-31T14:11:12;26.20;61.20
9808;DHT22;4943;52.550;13.462;2023-05-31T14:13:41;26.30;61.30
9808;DHT22;4943;52.550;13.462;2023-05-31T14:16:09;26.40;61.10
9808;DHT22;4943;52.550;13.462;2023-05-31T14:18:37;26.40;59.60
9808;DHT22;4943;52.550;13.462;2023-05-31T14:21:05;26.50;59.90
9808;DHT22;4943;52.550;13.462;2023-05-31T14:23:33;26.60;59.80
9808;DHT22;4943;52.550;13.462;2023-05-31T14:26:01;26.60;60.00
9808;DHT22;4943;52.550;13.462;2023-05-31T14:28:31;26.70;60.00
9808;DHT22;4943;52.550;13.462;2023-05-31T14:30:59;26.70;59.70
9808;DHT22;4943;52.550;13.462;2023-05-31T14:33:28;26.70;60.00
9808;DHT22;4943;52.550;13.462;2023-05-31T14:35:56;26.70;59.70
9808;DHT22;4943;52.550;13.462;2023-05-31T14:38:25;26.60;58.80
9808;DHT22;4943;52.550;13.462;2023-05-31T14:41:01;26.50;60.00
9808;DHT22;4943;52.550;13.462;2023-05-31T14:43:31;26.50;59.60
9808;DHT22;4943;52.550;13.462;2023-05-31T14:45:59;26.60;59.60
9808;DHT22;4943;52.550;13.462;2023-05-31T14:48:27;26.60;59.80
9808;DHT22;4943;52.550;13.462;2023-05-31T14:50:55;26.70;60.00
9808;DHT22;4943;52.550;13.462;2023-05-31T14:53:23;26.80;59.00
9808;DHT22;4943;52.550;13.462;2023-05-31T14:55:51;27.00;59.30
9808;DHT22;4943;52.550;13.462;2023-05-31T14:58:41;27.10;59.50
9808;DHT22;4943;52.550;13.462;2023-05-31T15:01:13;27.30;59.60
9808;DHT22;4943;52.550;13.462;2023-05-31T15:03:41;27.60;59.60
9808;DHT22;4943;52.550;13.462;2023-05-31T15:06:09;27.90;58.50
9808;DHT22;4943;52.550;13.462;2023-05-31T15:08:37;28.00;58.30
9808;DHT22;4943;52.550;13.462;2023-05-31T15:11:05;28.20;58.00
9808;DHT22;4943;52.550;13.462;2023-05-31T15:13:33;28.40;59.40
9808;DHT22;4943;52.550;13.462;2023-05-31T15:16:03;28.70;58.90
9808;DHT22;4943;52.550;13.462;2023-05-31T15:18:31;28.90;58.00
9808;DHT22;4943;52.550;13.462;2023-05-31T15:20:59;29.00;57.10
9808;DHT22;4943;52.550;13.462;2023-05-31T15:23:28;29.00;57.30
9808;DHT22;4943;52.550;13.462;2023-05-31T15:25:56;28.90;56.90
9808;DHT22;4943;52.550;13.462;2023-05-31T15:28:25;28.90;57.00
9808;DHT22;4943;52.550;13.462;2023-05-31T15:30:53;28.90;57.40
9808;DHT22;4943;52.550;13.462;2023-05-31T15:33:22;28.90;57.50
9808;DHT22;4943;52.550;13.462;2023-05-31T15:35:50;29.00;57.90
9808;DHT22;4943;52.550;13.462;2023-05-31T15:38:18;29.00;58.00
9808;DHT22;4943;52.550;13.462;2023-05-31T15:40:47;29.10;57.80
9808;DHT22;4943;52.550;13.462;2023-05-31T15:43:15;29.10;58.00
9808;DHT22;4943;52.550;13.462;2023-05-31T15:45:46;29.20;58.20
9808;DHT22;4943;52.550;13.462;2023-05-31T15:48:14;29.20;58.10
9808;DHT22;4943;52.550;13.462;2023-05-31T15:50:43;29.30;58.70
9808;DHT22;4943;52.550;13.462;2023-05-31T15:53:12;29.40;58.40
9808;DHT22;4943;52.550;13.462;2023-05-31T15:55:41;29.40;58.50
9808;DHT22;4943;52.550;13.462;2023-05-31T15:58:10;29.30;58.00
9808;DHT22;4943;52.550;13.462;2023-05-31T16:00:38;29.20;58.10
9808;DHT22;4943;52.550;13.462;2023-05-31T16:03:07;29.30;58.40
9808;DHT22;4943;52.550;13.462;2023-05-31T16:05:35;29.30;58.90